Epps Airpark


Codes: 00AL/
Name: Epps Airpark
City: Harvest
Country: United States
Elevation: 820 ft.

Photos at Epps Airpark


   Photos courtesy of SpottingLog. You can add your own sightings and photos by signing up for a free trial today.



No photos found.

Weather at Epps Airpark


Time (UTC)DescriptionTempratureWindCloud coverageVisibilityPressureHumidity
19-Apr-2024 03:00Light Rain21°C4 mph, SW0%10000m1017hPa90%
19-Apr-2024 06:00Scattered Clouds20°C4 mph, SW30%10000m1016hPa92%
19-Apr-2024 09:00Light Rain18°C7 mph, S47%10000m1016hPa96%
19-Apr-2024 12:00Light Rain18°C4 mph, SW82%10000m1016hPa98%
19-Apr-2024 15:00Light Rain19°C4 mph, W100%10000m1017hPa95%
19-Apr-2024 18:00Light Rain17°C9 mph, N100%10000m1018hPa95%
19-Apr-2024 21:00Overcast Clouds18°C9 mph, N98%10000m1017hPa89%
20-Apr-2024 00:00Overcast Clouds16°C9 mph, N99%10000m1018hPa88%
20-Apr-2024 03:00Overcast Clouds15°C9 mph, N100%10000m1020hPa85%
20-Apr-2024 06:00Overcast Clouds14°C13 mph, N100%10000m1020hPa78%
20-Apr-2024 09:00Overcast Clouds11°C11 mph, N100%10000m1021hPa65%
20-Apr-2024 12:00Overcast Clouds10°C13 mph, N100%10000m1023hPa67%
20-Apr-2024 15:00Overcast Clouds13°C18 mph, NE99%10000m1024hPa57%
20-Apr-2024 18:00Broken Clouds16°C13 mph, NE66%10000m1023hPa46%
20-Apr-2024 21:00Overcast Clouds16°C11 mph, NE95%10000m1021hPa53%
21-Apr-2024 00:00Overcast Clouds13°C7 mph, N97%10000m1022hPa66%
21-Apr-2024 03:00Overcast Clouds11°C11 mph, NE100%10000m1022hPa63%
21-Apr-2024 06:00Overcast Clouds10°C11 mph, NE100%10000m1021hPa66%
21-Apr-2024 09:00Overcast Clouds9°C9 mph, N100%10000m1021hPa67%
21-Apr-2024 12:00Overcast Clouds8°C11 mph, N100%10000m1022hPa67%
21-Apr-2024 15:00Overcast Clouds9°C9 mph, N100%10000m1022hPa68%
21-Apr-2024 18:00Overcast Clouds8°C9 mph, N100%10000m1022hPa75%
21-Apr-2024 21:00Light Rain9°C4 mph, N100%10000m1020hPa77%
22-Apr-2024 00:00Overcast Clouds9°C4 mph, N87%10000m1020hPa78%
22-Apr-2024 03:00Scattered Clouds6°C4 mph, N36%10000m1021hPa83%
22-Apr-2024 06:00Scattered Clouds5°C7 mph, N28%10000m1020hPa84%
22-Apr-2024 09:00Scattered Clouds4°C7 mph, N28%10000m1020hPa87%
22-Apr-2024 12:00Scattered Clouds5°C7 mph, N25%10000m1021hPa87%
22-Apr-2024 15:00Clear Sky12°C9 mph, N1%10000m1021hPa59%
22-Apr-2024 18:00Clear Sky15°C7 mph, N0%10000m1019hPa50%
22-Apr-2024 21:00Clear Sky16°C7 mph, N5%10000m1017hPa49%
23-Apr-2024 00:00Clear Sky12°C2 mph, N3%10000m1018hPa67%
23-Apr-2024 03:00Clear Sky9°C2 mph, SE0%10000m1019hPa71%
23-Apr-2024 06:00Clear Sky8°C2 mph, SE0%10000m1019hPa76%
23-Apr-2024 09:00Clear Sky6°C4 mph, SE0%10000m1019hPa80%
23-Apr-2024 12:00Clear Sky7°C4 mph, SE1%10000m1020hPa83%
23-Apr-2024 15:00Few Clouds15°C11 mph, S15%10000m1019hPa64%
23-Apr-2024 18:00Few Clouds19°C11 mph, SW19%10000m1018hPa54%
23-Apr-2024 21:00Scattered Clouds21°C11 mph, SW41%10000m1016hPa49%
24-Apr-2024 00:00Scattered Clouds17°C7 mph, SW35%10000m1015hPa76%